AAL2210 KDFW-KSAN
Flight info
| Callsign | AAL2210 |
|---|---|
| Flight time | 2h 52m |
| Altitude | 34000 |
| Route | WSTEX2 CIKAN EWM J4 SSO GBN J2 HOGGZ LUCKI1 |
| Aircraft | A320/M-SDE3FGHIRWY/LB1 |
Departure
| Time | 2026-05-06 22:10 |
|---|---|
| Airport | Dallas Fort Worth International Airport (KDFW) |
Arrival
| Time | 2026-05-07 01:02 |
|---|---|
| Airport | San Diego International Airport (KSAN) |
| Time | Latitude | Longitude | Altitude | Speed | Heading |
|---|---|---|---|---|---|
| 2026-05-06 21:52 | 32.90434 | -97.04581 | 615 ft | 0 kts | 88° |
| 2026-05-06 21:55 | 32.90434 | -97.04593 | 629 ft | 3 kts | 88° |
| 2026-05-06 21:56 | 32.90434 | -97.04616 | 625 ft | 3 kts | 88° |
| 2026-05-06 21:56 | 32.90435 | -97.04638 | 625 ft | 3 kts | 117° |
| 2026-05-06 21:56 | 32.90448 | -97.04655 | 630 ft | 3 kts | 161° |
| 2026-05-06 21:56 | 32.90467 | -97.04658 | 625 ft | 3 kts | 182° |
| 2026-05-06 21:57 | 32.90480 | -97.04658 | 622 ft | 0 kts | 182° |
| 2026-05-06 22:04 | 32.90478 | -97.04659 | 626 ft | 1 kts | 199° |
| 2026-05-06 22:04 | 32.90476 | -97.04683 | 626 ft | 7 kts | 268° |
| 2026-05-06 22:04 | 32.90448 | -97.04753 | 619 ft | 10 kts | 189° |
| 2026-05-06 22:04 | 32.90388 | -97.04758 | 623 ft | 9 kts | 182° |
| 2026-05-06 22:05 | 32.90315 | -97.04762 | 623 ft | 14 kts | 182° |
| 2026-05-06 22:05 | 32.90203 | -97.04766 | 621 ft | 18 kts | 182° |
| 2026-05-06 22:05 | 32.90070 | -97.04761 | 623 ft | 18 kts | 181° |
| 2026-05-06 22:05 | 32.89960 | -97.04763 | 615 ft | 15 kts | 180° |
| 2026-05-06 22:06 | 32.89847 | -97.04764 | 623 ft | 19 kts | 180° |
| 2026-05-06 22:06 | 32.89674 | -97.04765 | 615 ft | 30 kts | 179° |
| 2026-05-06 22:06 | 32.89443 | -97.04760 | 618 ft | 32 kts | 181° |
| 2026-05-06 22:06 | 32.89238 | -97.04765 | 619 ft | 27 kts | 180° |
| 2026-05-06 22:07 | 32.89068 | -97.04769 | 620 ft | 22 kts | 179° |
| 2026-05-06 22:07 | 32.88935 | -97.04771 | 619 ft | 17 kts | 180° |
| 2026-05-06 22:07 | 32.88807 | -97.04769 | 619 ft | 26 kts | 179° |
| 2026-05-06 22:07 | 32.88595 | -97.04768 | 618 ft | 30 kts | 179° |
| 2026-05-06 22:08 | 32.88416 | -97.04807 | 619 ft | 24 kts | 181° |
| 2026-05-06 22:08 | 32.88269 | -97.04800 | 623 ft | 19 kts | 176° |
| 2026-05-06 22:08 | 32.88156 | -97.04807 | 622 ft | 14 kts | 183° |
| 2026-05-06 22:08 | 32.88071 | -97.04811 | 623 ft | 10 kts | 182° |
| 2026-05-06 22:09 | 32.88014 | -97.04818 | 621 ft | 7 kts | 196° |
| 2026-05-06 22:09 | 32.87979 | -97.04900 | 621 ft | 18 kts | 269° |
| 2026-05-06 22:09 | 32.87996 | -97.05072 | 625 ft | 19 kts | 314° |
| 2026-05-06 22:09 | 32.88125 | -97.05092 | 620 ft | 26 kts | 359° |
| 2026-05-06 22:10 | 32.88554 | -97.05090 | 622 ft | 106 kts | 0° |
| 2026-05-06 22:10 | 32.89577 | -97.05087 | 774 ft | 178 kts | 360° |
| 2026-05-06 22:10 | 32.90733 | -97.05133 | 1727 ft | 147 kts | 358° |
| 2026-05-06 22:10 | 32.91800 | -97.05038 | 2181 ft | 172 kts | 12° |
| 2026-05-06 22:11 | 32.93139 | -97.05040 | 2642 ft | 214 kts | 353° |
| 2026-05-06 22:11 | 32.94679 | -97.05448 | 3311 ft | 244 kts | 346° |
| 2026-05-06 22:11 | 32.96402 | -97.06061 | 4077 ft | 276 kts | 341° |
| 2026-05-06 22:11 | 32.98182 | -97.06771 | 4519 ft | 252 kts | 338° |
| 2026-05-06 22:12 | 32.99640 | -97.07821 | 4908 ft | 247 kts | 306° |
| 2026-05-06 22:12 | 33.00380 | -97.09631 | 5271 ft | 245 kts | 286° |
| 2026-05-06 22:12 | 33.00740 | -97.11640 | 5623 ft | 261 kts | 277° |
| 2026-05-06 22:12 | 33.00863 | -97.13803 | 5967 ft | 260 kts | 269° |
| 2026-05-06 22:13 | 33.00778 | -97.15984 | 6348 ft | 270 kts | 265° |
| 2026-05-06 22:13 | 33.00594 | -97.18249 | 6790 ft | 289 kts | 263° |
| 2026-05-06 22:13 | 33.00222 | -97.20686 | 7448 ft | 311 kts | 250° |
| 2026-05-06 22:13 | 32.99282 | -97.23077 | 8463 ft | 326 kts | 242° |
| 2026-05-06 22:14 | 32.98186 | -97.25342 | 9113 ft | 297 kts | 239° |
| 2026-05-06 22:14 | 32.97136 | -97.27333 | 9129 ft | 271 kts | 237° |
| 2026-05-06 22:14 | 32.96134 | -97.29139 | 9140 ft | 254 kts | 237° |
| 2026-05-06 22:14 | 32.95151 | -97.30841 | 9139 ft | 248 kts | 236° |
| 2026-05-06 22:15 | 32.94145 | -97.32542 | 9149 ft | 257 kts | 236° |
| 2026-05-06 22:15 | 32.93057 | -97.34332 | 9261 ft | 278 kts | 235° |
| 2026-05-06 22:15 | 32.91883 | -97.36221 | 9709 ft | 298 kts | 234° |
| 2026-05-06 22:15 | 32.90584 | -97.38272 | 10134 ft | 328 kts | 234° |
| 2026-05-06 22:16 | 32.89114 | -97.40568 | 10260 ft | 367 kts | 233° |
| 2026-05-06 22:16 | 32.87503 | -97.43059 | 10573 ft | 383 kts | 233° |
| 2026-05-06 22:16 | 32.85960 | -97.45426 | 10599 ft | 343 kts | 233° |
| 2026-05-06 22:16 | 32.84567 | -97.47553 | 10608 ft | 311 kts | 233° |
| 2026-05-06 22:17 | 32.83290 | -97.49507 | 10604 ft | 290 kts | 233° |
| 2026-05-06 22:17 | 32.82093 | -97.51345 | 10603 ft | 283 kts | 233° |
| 2026-05-06 22:17 | 32.80874 | -97.53227 | 10611 ft | 294 kts | 234° |
| 2026-05-06 22:17 | 32.79585 | -97.55222 | 10708 ft | 314 kts | 233° |
| 2026-05-06 22:18 | 32.78214 | -97.57339 | 11139 ft | 331 kts | 233° |
| 2026-05-06 22:18 | 32.76778 | -97.59548 | 11902 ft | 344 kts | 233° |
| 2026-05-06 22:18 | 32.75304 | -97.61807 | 13080 ft | 346 kts | 234° |
| 2026-05-06 22:18 | 32.73824 | -97.64072 | 14260 ft | 348 kts | 234° |
| 2026-05-06 22:19 | 32.72340 | -97.66349 | 15360 ft | 349 kts | 234° |
| 2026-05-06 22:19 | 32.70875 | -97.68606 | 16422 ft | 350 kts | 234° |
| 2026-05-06 22:19 | 32.69580 | -97.71040 | 17444 ft | 351 kts | 247° |
| 2026-05-06 22:19 | 32.68849 | -97.73815 | 18416 ft | 354 kts | 253° |
| 2026-05-06 22:20 | 32.68297 | -97.76681 | 19264 ft | 358 kts | 256° |
| 2026-05-06 22:20 | 32.67837 | -97.79599 | 20082 ft | 362 kts | 258° |
| 2026-05-06 22:20 | 32.67440 | -97.82562 | 20884 ft | 365 kts | 259° |
| 2026-05-06 22:20 | 32.67087 | -97.85559 | 21669 ft | 369 kts | 260° |
| 2026-05-06 22:21 | 32.66767 | -97.88592 | 22430 ft | 372 kts | 261° |
| 2026-05-06 22:21 | 32.66473 | -97.91614 | 23188 ft | 375 kts | 261° |
| 2026-05-06 22:21 | 32.66191 | -97.94706 | 23846 ft | 379 kts | 262° |
| 2026-05-06 22:21 | 32.65922 | -97.97828 | 24472 ft | 381 kts | 262° |
| 2026-05-06 22:22 | 32.65662 | -98.00969 | 25078 ft | 384 kts | 262° |
| 2026-05-06 22:22 | 32.65406 | -98.04134 | 25677 ft | 387 kts | 262° |
| 2026-05-06 22:22 | 32.65151 | -98.07322 | 26253 ft | 390 kts | 262° |
| 2026-05-06 22:22 | 32.64895 | -98.10527 | 26937 ft | 389 kts | 262° |
| 2026-05-06 22:23 | 32.64643 | -98.13709 | 27784 ft | 385 kts | 261° |
| 2026-05-06 22:23 | 32.64394 | -98.16863 | 28610 ft | 382 kts | 261° |
| 2026-05-06 22:23 | 32.64150 | -98.19948 | 29426 ft | 379 kts | 261° |
| 2026-05-06 22:23 | 32.63903 | -98.23050 | 30195 ft | 376 kts | 261° |
| 2026-05-06 22:24 | 32.63657 | -98.26125 | 30902 ft | 372 kts | 260° |
| 2026-05-06 22:24 | 32.63416 | -98.29162 | 31632 ft | 368 kts | 260° |
| 2026-05-06 22:24 | 32.63172 | -98.32167 | 32312 ft | 364 kts | 260° |
| 2026-05-06 22:24 | 32.62928 | -98.35144 | 32995 ft | 361 kts | 260° |
| 2026-05-06 22:25 | 32.62689 | -98.38076 | 33501 ft | 351 kts | 260° |
| 2026-05-06 22:25 | 32.62457 | -98.40928 | 33779 ft | 347 kts | 260° |
| 2026-05-06 22:25 | 32.62219 | -98.43800 | 33894 ft | 353 kts | 260° |
| 2026-05-06 22:25 | 32.61976 | -98.46678 | 33940 ft | 357 kts | 260° |
| 2026-05-06 22:26 | 32.61486 | -98.52516 | 33969 ft | 354 kts | 260° |
| 2026-05-06 22:26 | 32.61001 | -98.58311 | 33983 ft | 353 kts | 260° |
| 2026-05-06 22:27 | 32.60513 | -98.64118 | 33986 ft | 354 kts | 260° |
| 2026-05-06 22:27 | 32.60026 | -98.69890 | 33997 ft | 354 kts | 260° |
| 2026-05-06 22:28 | 32.59535 | -98.75691 | 34004 ft | 354 kts | 260° |
| 2026-05-06 22:28 | 32.59040 | -98.81504 | 34009 ft | 355 kts | 260° |
| 2026-05-06 22:29 | 32.58542 | -98.87321 | 34012 ft | 354 kts | 260° |
| 2026-05-06 22:29 | 32.58046 | -98.93090 | 34010 ft | 354 kts | 260° |
| 2026-05-06 22:30 | 32.57543 | -98.98899 | 34007 ft | 355 kts | 260° |
| 2026-05-06 22:30 | 32.57038 | -99.04713 | 34001 ft | 354 kts | 260° |
| 2026-05-06 22:31 | 32.56531 | -99.10518 | 33998 ft | 354 kts | 260° |
| 2026-05-06 22:31 | 32.56023 | -99.16286 | 33989 ft | 355 kts | 260° |
| 2026-05-06 22:32 | 32.55511 | -99.22102 | 33982 ft | 355 kts | 260° |
| 2026-05-06 22:32 | 32.54995 | -99.27910 | 33979 ft | 354 kts | 260° |
| 2026-05-06 22:33 | 32.54555 | -99.33731 | 33979 ft | 355 kts | 261° |
| 2026-05-06 22:33 | 32.54178 | -99.39524 | 33984 ft | 355 kts | 261° |
| 2026-05-06 22:34 | 32.53816 | -99.45350 | 33991 ft | 355 kts | 261° |
| 2026-05-06 22:34 | 32.53460 | -99.51193 | 33994 ft | 356 kts | 261° |
| 2026-05-06 22:35 | 32.53102 | -99.57040 | 34005 ft | 355 kts | 261° |
| 2026-05-06 22:35 | 32.52746 | -99.62872 | 34005 ft | 355 kts | 261° |
| 2026-05-06 22:36 | 32.52389 | -99.68672 | 34008 ft | 356 kts | 261° |
| 2026-05-06 22:36 | 32.52025 | -99.74515 | 34004 ft | 355 kts | 261° |
| 2026-05-06 22:37 | 32.51661 | -99.80347 | 33991 ft | 355 kts | 261° |
| 2026-05-06 22:37 | 32.51293 | -99.86182 | 33989 ft | 359 kts | 261° |
| 2026-05-06 22:38 | 32.51099 | -99.89182 | 33992 ft | 371 kts | 261° |
| 2026-05-06 22:38 | 32.50899 | -99.92237 | 33991 ft | 383 kts | 261° |
| 2026-05-06 22:38 | 32.50689 | -99.95430 | 33989 ft | 394 kts | 261° |
| 2026-05-06 22:38 | 32.50487 | -99.98608 | 33988 ft | 380 kts | 261° |
| 2026-05-06 22:39 | 32.50096 | -100.04832 | 33981 ft | 381 kts | 261° |
| 2026-05-06 22:39 | 32.49687 | -100.11141 | 33974 ft | 385 kts | 261° |
| 2026-05-06 22:40 | 32.49277 | -100.17450 | 33999 ft | 383 kts | 261° |
| 2026-05-06 22:40 | 32.48866 | -100.23691 | 34011 ft | 383 kts | 261° |
| 2026-05-06 22:41 | 32.48763 | -100.33204 | 34038 ft | 388 kts | 267° |
| 2026-05-06 22:42 | 32.49122 | -100.39570 | 34046 ft | 387 kts | 268° |
| 2026-05-06 22:42 | 32.49538 | -100.45892 | 34049 ft | 388 kts | 268° |
| 2026-05-06 22:43 | 32.49978 | -100.52260 | 34048 ft | 387 kts | 268° |
| 2026-05-06 22:43 | 32.50428 | -100.58606 | 34039 ft | 386 kts | 268° |
| 2026-05-06 22:44 | 32.50879 | -100.64953 | 34022 ft | 387 kts | 268° |
| 2026-05-06 22:44 | 32.51329 | -100.71258 | 34001 ft | 386 kts | 268° |
| 2026-05-06 22:45 | 32.51781 | -100.77586 | 33981 ft | 385 kts | 268° |
| 2026-05-06 22:45 | 32.52232 | -100.83914 | 33993 ft | 385 kts | 268° |
| 2026-05-06 22:46 | 32.52680 | -100.90239 | 33997 ft | 385 kts | 268° |
| 2026-05-06 22:46 | 32.53127 | -100.96555 | 33994 ft | 384 kts | 268° |
| 2026-05-06 22:47 | 32.53567 | -101.02833 | 33998 ft | 386 kts | 268° |
| 2026-05-06 22:47 | 32.54010 | -101.09169 | 33983 ft | 385 kts | 268° |
| 2026-05-06 22:48 | 32.54449 | -101.15493 | 33980 ft | 385 kts | 268° |
| 2026-05-06 22:48 | 32.54885 | -101.21829 | 33965 ft | 386 kts | 268° |
| 2026-05-06 22:49 | 32.55319 | -101.28171 | 33951 ft | 386 kts | 268° |
| 2026-05-06 22:49 | 32.55747 | -101.34466 | 33937 ft | 386 kts | 268° |
| 2026-05-06 22:50 | 32.56176 | -101.40812 | 33942 ft | 386 kts | 268° |
| 2026-05-06 22:50 | 32.56602 | -101.47155 | 33937 ft | 386 kts | 268° |
| 2026-05-06 22:51 | 32.57024 | -101.53489 | 33939 ft | 385 kts | 268° |
| 2026-05-06 22:51 | 32.57440 | -101.59782 | 33948 ft | 386 kts | 268° |
| 2026-05-06 22:52 | 32.57855 | -101.66124 | 33960 ft | 385 kts | 268° |
| 2026-05-06 22:52 | 32.58268 | -101.72449 | 33966 ft | 385 kts | 268° |
| 2026-05-06 22:53 | 32.58676 | -101.78781 | 33979 ft | 385 kts | 268° |
| 2026-05-06 22:53 | 32.59078 | -101.85072 | 33985 ft | 385 kts | 268° |
| 2026-05-06 22:54 | 32.59480 | -101.91399 | 33986 ft | 384 kts | 268° |
| 2026-05-06 22:54 | 32.59878 | -101.97722 | 33991 ft | 385 kts | 268° |
| 2026-05-06 22:55 | 32.60273 | -102.04054 | 33981 ft | 385 kts | 268° |
| 2026-05-06 22:55 | 32.60666 | -102.10377 | 33972 ft | 384 kts | 268° |
| 2026-05-06 22:56 | 32.61052 | -102.16654 | 33970 ft | 384 kts | 267° |
| 2026-05-06 22:56 | 32.61439 | -102.22979 | 33955 ft | 385 kts | 267° |
| 2026-05-06 22:57 | 32.61822 | -102.29296 | 33957 ft | 384 kts | 267° |
| 2026-05-06 22:57 | 32.62200 | -102.35607 | 33974 ft | 384 kts | 267° |
| 2026-05-06 22:58 | 32.62572 | -102.41888 | 33993 ft | 384 kts | 267° |
| 2026-05-06 22:58 | 32.62945 | -102.48205 | 34007 ft | 384 kts | 267° |
| 2026-05-06 22:59 | 32.63315 | -102.54517 | 34027 ft | 384 kts | 267° |
| 2026-05-06 22:59 | 32.63682 | -102.60836 | 34025 ft | 384 kts | 267° |
| 2026-05-06 23:00 | 32.64043 | -102.67109 | 34027 ft | 383 kts | 267° |
| 2026-05-06 23:00 | 32.64402 | -102.73416 | 34026 ft | 384 kts | 267° |
| 2026-05-06 23:00 | 32.64334 | -102.76537 | 34033 ft | 373 kts | 252° |
| 2026-05-06 23:01 | 32.63298 | -102.79330 | 34033 ft | 372 kts | 241° |
| 2026-05-06 23:01 | 32.60625 | -102.84589 | 33980 ft | 372 kts | 239° |
| 2026-05-06 23:02 | 32.57890 | -102.89791 | 33954 ft | 371 kts | 239° |
| 2026-05-06 23:02 | 32.55180 | -102.94967 | 33905 ft | 373 kts | 239° |
| 2026-05-06 23:03 | 32.52471 | -103.00201 | 33910 ft | 372 kts | 239° |
| 2026-05-06 23:03 | 32.49796 | -103.05438 | 33909 ft | 371 kts | 240° |
| 2026-05-06 23:04 | 32.47147 | -103.10698 | 33912 ft | 372 kts | 240° |
| 2026-05-06 23:04 | 32.44541 | -103.15948 | 33892 ft | 372 kts | 240° |
| 2026-05-06 23:05 | 32.41958 | -103.21226 | 33889 ft | 370 kts | 240° |
| 2026-05-06 23:05 | 32.39399 | -103.26537 | 33878 ft | 372 kts | 241° |
| 2026-05-06 23:06 | 32.36868 | -103.31869 | 33860 ft | 371 kts | 241° |
| 2026-05-06 23:06 | 32.34390 | -103.37173 | 33847 ft | 371 kts | 242° |
| 2026-05-06 23:07 | 32.31923 | -103.42536 | 33839 ft | 372 kts | 242° |
| 2026-05-06 23:07 | 32.29486 | -103.47924 | 33837 ft | 372 kts | 242° |
| 2026-05-06 23:08 | 32.27191 | -103.53389 | 33833 ft | 371 kts | 245° |
| 2026-05-06 23:08 | 32.25334 | -103.59083 | 33832 ft | 373 kts | 249° |
| 2026-05-06 23:09 | 32.23885 | -103.64933 | 33829 ft | 374 kts | 252° |
| 2026-05-06 23:09 | 32.22717 | -103.70923 | 33831 ft | 375 kts | 254° |
| 2026-05-06 23:10 | 32.21746 | -103.76977 | 33827 ft | 376 kts | 256° |
| 2026-05-06 23:10 | 32.20908 | -103.83084 | 33824 ft | 377 kts | 257° |
| 2026-05-06 23:11 | 32.20164 | -103.89172 | 33829 ft | 377 kts | 257° |
| 2026-05-06 23:11 | 32.19474 | -103.95308 | 33856 ft | 377 kts | 257° |
| 2026-05-06 23:12 | 32.18816 | -104.01467 | 33873 ft | 378 kts | 258° |
| 2026-05-06 23:12 | 32.18182 | -104.07633 | 33891 ft | 378 kts | 258° |
| 2026-05-06 23:13 | 32.17563 | -104.13801 | 33906 ft | 378 kts | 258° |
| 2026-05-06 23:13 | 32.16953 | -104.19933 | 33915 ft | 379 kts | 258° |
| 2026-05-06 23:14 | 32.16341 | -104.26127 | 33915 ft | 380 kts | 258° |
| 2026-05-06 23:14 | 32.15732 | -104.32320 | 33910 ft | 380 kts | 258° |
| 2026-05-06 23:15 | 32.15120 | -104.38528 | 33900 ft | 382 kts | 258° |
| 2026-05-06 23:15 | 32.14510 | -104.44704 | 33887 ft | 381 kts | 258° |
| 2026-05-06 23:16 | 32.13896 | -104.50916 | 33867 ft | 382 kts | 258° |
| 2026-05-06 23:16 | 32.13284 | -104.57131 | 33853 ft | 381 kts | 258° |
| 2026-05-06 23:17 | 32.12663 | -104.63319 | 33825 ft | 381 kts | 258° |
| 2026-05-06 23:17 | 32.12039 | -104.69538 | 33850 ft | 381 kts | 258° |
| 2026-05-06 23:18 | 32.11421 | -104.75687 | 33860 ft | 379 kts | 258° |
| 2026-05-06 23:18 | 32.10793 | -104.81876 | 33869 ft | 381 kts | 258° |
| 2026-05-06 23:19 | 32.10164 | -104.88064 | 33865 ft | 380 kts | 258° |
| 2026-05-06 23:19 | 32.09536 | -104.94223 | 33860 ft | 377 kts | 258° |
| 2026-05-06 23:20 | 32.09011 | -104.99328 | 33866 ft | 378 kts | 258° |
| 2026-05-06 23:20 | 32.08270 | -105.06479 | 33860 ft | 378 kts | 258° |
| 2026-05-06 23:21 | 32.07741 | -105.11586 | 33855 ft | 378 kts | 257° |
| 2026-05-06 23:21 | 32.07100 | -105.17729 | 33839 ft | 377 kts | 257° |
| 2026-05-06 23:22 | 32.06459 | -105.23860 | 33848 ft | 377 kts | 257° |
| 2026-05-06 23:22 | 32.05710 | -105.30984 | 33853 ft | 377 kts | 257° |
| 2026-05-06 23:23 | 32.05172 | -105.36073 | 33853 ft | 376 kts | 257° |
| 2026-05-06 23:23 | 32.04523 | -105.42195 | 33851 ft | 376 kts | 257° |
| 2026-05-06 23:24 | 32.03863 | -105.48337 | 33865 ft | 381 kts | 257° |
| 2026-05-06 23:24 | 32.03196 | -105.54539 | 33861 ft | 380 kts | 257° |
| 2026-05-06 23:25 | 32.02543 | -105.60672 | 33871 ft | 376 kts | 257° |
| 2026-05-06 23:25 | 32.01883 | -105.66778 | 33874 ft | 379 kts | 257° |
| 2026-05-06 23:26 | 32.01216 | -105.72929 | 33866 ft | 378 kts | 257° |
| 2026-05-06 23:26 | 32.00546 | -105.79066 | 33871 ft | 379 kts | 257° |
| 2026-05-06 23:27 | 31.99868 | -105.85236 | 33873 ft | 380 kts | 257° |
| 2026-05-06 23:27 | 31.99191 | -105.91392 | 33869 ft | 378 kts | 257° |
| 2026-05-06 23:28 | 31.98516 | -105.97500 | 33868 ft | 380 kts | 256° |
| 2026-05-06 23:28 | 31.97833 | -106.03659 | 33886 ft | 379 kts | 257° |
| 2026-05-06 23:29 | 31.97141 | -106.09818 | 33914 ft | 379 kts | 256° |
| 2026-05-06 23:29 | 31.96452 | -106.15973 | 33944 ft | 380 kts | 256° |
| 2026-05-06 23:30 | 31.95761 | -106.22110 | 33969 ft | 381 kts | 257° |
| 2026-05-06 23:30 | 31.95847 | -106.28442 | 33991 ft | 390 kts | 266° |
| 2026-05-06 23:31 | 31.96392 | -106.34843 | 34004 ft | 393 kts | 268° |
| 2026-05-06 23:31 | 31.97036 | -106.41204 | 33999 ft | 394 kts | 268° |
| 2026-05-06 23:32 | 31.97724 | -106.47599 | 33981 ft | 393 kts | 268° |
| 2026-05-06 23:32 | 31.98430 | -106.53966 | 33989 ft | 394 kts | 268° |
| 2026-05-06 23:33 | 31.99146 | -106.60391 | 34007 ft | 396 kts | 268° |
| 2026-05-06 23:33 | 31.99870 | -106.66803 | 34015 ft | 394 kts | 268° |
| 2026-05-06 23:34 | 32.00590 | -106.73174 | 34013 ft | 396 kts | 268° |
| 2026-05-06 23:34 | 32.01316 | -106.79613 | 33993 ft | 396 kts | 269° |
| 2026-05-06 23:35 | 32.02042 | -106.86045 | 33972 ft | 396 kts | 268° |
| 2026-05-06 23:35 | 32.02767 | -106.92491 | 33942 ft | 397 kts | 268° |
| 2026-05-06 23:36 | 32.03485 | -106.98910 | 33936 ft | 398 kts | 269° |
| 2026-05-06 23:36 | 32.04209 | -107.05386 | 33932 ft | 398 kts | 268° |
| 2026-05-06 23:37 | 32.04930 | -107.11865 | 33913 ft | 399 kts | 269° |
| 2026-05-06 23:37 | 32.05651 | -107.18367 | 33895 ft | 401 kts | 269° |
| 2026-05-06 23:38 | 32.06369 | -107.24883 | 33883 ft | 401 kts | 269° |
| 2026-05-06 23:38 | 32.07080 | -107.31355 | 33877 ft | 401 kts | 269° |
| 2026-05-06 23:39 | 32.07792 | -107.37881 | 33894 ft | 402 kts | 269° |
| 2026-05-06 23:39 | 32.08503 | -107.44427 | 33926 ft | 402 kts | 269° |
| 2026-05-06 23:40 | 32.09212 | -107.50961 | 33960 ft | 402 kts | 269° |
| 2026-05-06 23:40 | 32.09914 | -107.57465 | 33985 ft | 404 kts | 269° |
| 2026-05-06 23:41 | 32.10619 | -107.64049 | 34004 ft | 407 kts | 269° |
| 2026-05-06 23:41 | 32.11320 | -107.70627 | 34026 ft | 401 kts | 269° |
| 2026-05-06 23:42 | 32.12014 | -107.77161 | 34027 ft | 402 kts | 269° |
| 2026-05-06 23:42 | 32.12706 | -107.83709 | 34018 ft | 402 kts | 269° |
| 2026-05-06 23:43 | 32.13390 | -107.90194 | 33992 ft | 400 kts | 269° |
| 2026-05-06 23:43 | 32.14072 | -107.96708 | 33966 ft | 400 kts | 269° |
| 2026-05-06 23:44 | 32.14750 | -108.03226 | 33947 ft | 400 kts | 269° |
| 2026-05-06 23:44 | 32.15425 | -108.09731 | 33920 ft | 399 kts | 269° |
| 2026-05-06 23:45 | 32.16090 | -108.16187 | 33915 ft | 399 kts | 269° |
| 2026-05-06 23:45 | 32.16757 | -108.22692 | 33920 ft | 399 kts | 269° |
| 2026-05-06 23:46 | 32.17420 | -108.29186 | 33926 ft | 398 kts | 269° |
| 2026-05-06 23:46 | 32.18080 | -108.35683 | 33946 ft | 399 kts | 269° |
| 2026-05-06 23:47 | 32.18737 | -108.42183 | 33975 ft | 399 kts | 269° |
| 2026-05-06 23:47 | 32.19381 | -108.48665 | 34006 ft | 403 kts | 269° |
| 2026-05-06 23:48 | 32.20037 | -108.55243 | 34023 ft | 403 kts | 269° |
| 2026-05-06 23:48 | 32.20694 | -108.61796 | 34040 ft | 402 kts | 269° |
| 2026-05-06 23:49 | 32.21344 | -108.68352 | 34047 ft | 403 kts | 269° |
| 2026-05-06 23:49 | 32.21990 | -108.74886 | 34043 ft | 403 kts | 269° |
| 2026-05-06 23:50 | 32.22634 | -108.81467 | 34038 ft | 403 kts | 269° |
| 2026-05-06 23:50 | 32.23594 | -108.91326 | 34002 ft | 403 kts | 269° |
| 2026-05-06 23:51 | 32.24229 | -108.97914 | 33973 ft | 404 kts | 269° |
| 2026-05-06 23:51 | 32.24858 | -109.04462 | 33951 ft | 404 kts | 269° |
| 2026-05-06 23:52 | 32.25487 | -109.11047 | 33923 ft | 404 kts | 269° |
| 2026-05-06 23:52 | 32.26111 | -109.17644 | 33924 ft | 404 kts | 268° |
| 2026-05-06 23:53 | 32.26763 | -109.24248 | 33922 ft | 405 kts | 269° |
| 2026-05-06 23:53 | 32.27529 | -109.30807 | 33922 ft | 406 kts | 270° |
| 2026-05-06 23:54 | 32.28332 | -109.37417 | 33924 ft | 407 kts | 270° |
| 2026-05-06 23:54 | 32.29144 | -109.44040 | 33919 ft | 407 kts | 270° |
| 2026-05-06 23:55 | 32.29957 | -109.50666 | 33930 ft | 408 kts | 270° |
| 2026-05-06 23:55 | 32.30769 | -109.57302 | 33917 ft | 408 kts | 270° |
| 2026-05-06 23:56 | 32.31574 | -109.63905 | 33922 ft | 409 kts | 270° |
| 2026-05-06 23:56 | 32.32382 | -109.70566 | 33930 ft | 410 kts | 270° |
| 2026-05-06 23:57 | 32.33188 | -109.77248 | 33937 ft | 411 kts | 270° |
| 2026-05-06 23:57 | 32.33992 | -109.83936 | 33948 ft | 411 kts | 270° |
| 2026-05-06 23:58 | 32.34789 | -109.90599 | 33948 ft | 413 kts | 270° |
| 2026-05-06 23:58 | 32.35591 | -109.97327 | 33952 ft | 413 kts | 270° |
| 2026-05-06 23:59 | 32.36393 | -110.04065 | 33940 ft | 415 kts | 270° |
| 2026-05-06 23:59 | 32.37189 | -110.10865 | 33950 ft | 419 kts | 270° |
| 2026-05-07 00:00 | 32.37985 | -110.17603 | 33964 ft | 415 kts | 270° |
| 2026-05-07 00:00 | 32.38778 | -110.24391 | 33965 ft | 418 kts | 270° |
| 2026-05-07 00:01 | 32.39571 | -110.31223 | 33961 ft | 419 kts | 270° |
| 2026-05-07 00:01 | 32.40363 | -110.38048 | 33961 ft | 420 kts | 270° |
| 2026-05-07 00:02 | 32.41146 | -110.44868 | 33963 ft | 422 kts | 270° |
| 2026-05-07 00:02 | 32.41936 | -110.51756 | 33955 ft | 422 kts | 270° |
| 2026-05-07 00:03 | 32.42726 | -110.58665 | 33959 ft | 425 kts | 271° |
| 2026-05-07 00:03 | 32.43517 | -110.65620 | 33962 ft | 428 kts | 271° |
| 2026-05-07 00:04 | 32.44308 | -110.72616 | 33980 ft | 430 kts | 271° |
| 2026-05-07 00:04 | 32.45082 | -110.79372 | 33962 ft | 396 kts | 271° |
| 2026-05-07 00:05 | 32.45814 | -110.85808 | 33992 ft | 398 kts | 271° |
| 2026-05-07 00:05 | 32.46532 | -110.92358 | 33984 ft | 403 kts | 271° |
| 2026-05-07 00:06 | 32.47255 | -110.98939 | 33986 ft | 403 kts | 271° |
| 2026-05-07 00:06 | 32.47978 | -111.05531 | 33995 ft | 405 kts | 271° |
| 2026-05-07 00:07 | 32.48699 | -111.12127 | 34004 ft | 407 kts | 271° |
| 2026-05-07 00:07 | 32.49425 | -111.18782 | 34003 ft | 408 kts | 271° |
| 2026-05-07 00:08 | 32.50151 | -111.25466 | 34019 ft | 410 kts | 271° |
| 2026-05-07 00:08 | 32.50878 | -111.32190 | 34016 ft | 412 kts | 272° |
| 2026-05-07 00:09 | 32.51598 | -111.38880 | 34017 ft | 413 kts | 272° |
| 2026-05-07 00:09 | 32.52324 | -111.45656 | 34012 ft | 416 kts | 272° |
| 2026-05-07 00:10 | 32.53049 | -111.52462 | 33996 ft | 416 kts | 272° |
| 2026-05-07 00:10 | 32.53771 | -111.59271 | 33984 ft | 418 kts | 272° |
| 2026-05-07 00:11 | 32.54488 | -111.66080 | 33968 ft | 421 kts | 272° |
| 2026-05-07 00:11 | 32.55210 | -111.72965 | 33958 ft | 421 kts | 272° |
| 2026-05-07 00:12 | 32.55929 | -111.79871 | 33530 ft | 424 kts | 272° |
| 2026-05-07 00:12 | 32.56285 | -111.83347 | 32818 ft | 426 kts | 273° |
| 2026-05-07 00:12 | 32.56639 | -111.86853 | 32176 ft | 430 kts | 273° |
| 2026-05-07 00:13 | 32.57361 | -111.93929 | 32209 ft | 439 kts | 274° |
| 2026-05-07 00:13 | 32.57730 | -111.97505 | 32099 ft | 436 kts | 274° |
| 2026-05-07 00:13 | 32.58096 | -112.01075 | 31544 ft | 437 kts | 274° |
| 2026-05-07 00:14 | 32.58457 | -112.04660 | 30719 ft | 438 kts | 275° |
| 2026-05-07 00:14 | 32.58814 | -112.08236 | 29930 ft | 433 kts | 275° |
| 2026-05-07 00:14 | 32.59179 | -112.11760 | 28711 ft | 431 kts | 278° |
| 2026-05-07 00:14 | 32.60161 | -112.15140 | 27115 ft | 441 kts | 299° |
| 2026-05-07 00:15 | 32.62150 | -112.17912 | 25602 ft | 448 kts | 321° |
| 2026-05-07 00:15 | 32.64669 | -112.20050 | 24800 ft | 437 kts | 327° |
| 2026-05-07 00:15 | 32.67118 | -112.21968 | 24343 ft | 419 kts | 328° |
| 2026-05-07 00:15 | 32.69500 | -112.23831 | 23929 ft | 401 kts | 328° |
| 2026-05-07 00:16 | 32.71766 | -112.25653 | 23547 ft | 386 kts | 327° |
| 2026-05-07 00:16 | 32.73925 | -112.27456 | 23123 ft | 372 kts | 327° |
| 2026-05-07 00:16 | 32.75976 | -112.29247 | 22723 ft | 360 kts | 326° |
| 2026-05-07 00:16 | 32.77927 | -112.31034 | 22338 ft | 349 kts | 324° |
| 2026-05-07 00:17 | 32.79791 | -112.32826 | 21843 ft | 342 kts | 323° |
| 2026-05-07 00:17 | 32.81600 | -112.34649 | 21252 ft | 340 kts | 321° |
| 2026-05-07 00:17 | 32.83354 | -112.36515 | 20667 ft | 337 kts | 320° |
| 2026-05-07 00:17 | 32.85026 | -112.38397 | 20117 ft | 334 kts | 318° |
| 2026-05-07 00:18 | 32.86653 | -112.40359 | 19562 ft | 332 kts | 315° |
| 2026-05-07 00:18 | 32.88139 | -112.42449 | 19028 ft | 330 kts | 309° |
| 2026-05-07 00:18 | 32.89431 | -112.44699 | 18499 ft | 329 kts | 303° |
| 2026-05-07 00:18 | 32.90532 | -112.47072 | 17938 ft | 327 kts | 298° |
| 2026-05-07 00:19 | 32.91470 | -112.49525 | 17335 ft | 325 kts | 294° |
| 2026-05-07 00:19 | 32.92275 | -112.52027 | 16750 ft | 323 kts | 291° |
| 2026-05-07 00:19 | 32.92976 | -112.54558 | 16177 ft | 321 kts | 289° |
| 2026-05-07 00:19 | 32.93599 | -112.57101 | 15626 ft | 319 kts | 287° |
| 2026-05-07 00:20 | 32.94152 | -112.59613 | 15109 ft | 317 kts | 285° |
| 2026-05-07 00:20 | 32.94666 | -112.62156 | 14565 ft | 315 kts | 284° |
| 2026-05-07 00:20 | 32.94905 | -112.64706 | 14362 ft | 302 kts | 272° |
| 2026-05-07 00:20 | 32.94899 | -112.67130 | 14356 ft | 284 kts | 269° |
| 2026-05-07 00:21 | 32.94820 | -112.69410 | 14348 ft | 269 kts | 268° |
| 2026-05-07 00:21 | 32.94702 | -112.71598 | 14350 ft | 261 kts | 266° |
| 2026-05-07 00:21 | 32.94551 | -112.73755 | 14371 ft | 263 kts | 266° |
| 2026-05-07 00:21 | 32.94367 | -112.75964 | 14378 ft | 275 kts | 265° |
| 2026-05-07 00:22 | 32.94146 | -112.78271 | 14425 ft | 294 kts | 264° |
| 2026-05-07 00:22 | 32.93884 | -112.80756 | 14721 ft | 311 kts | 263° |
| 2026-05-07 00:22 | 32.93590 | -112.83357 | 15230 ft | 324 kts | 263° |
| 2026-05-07 00:22 | 32.93276 | -112.86020 | 15472 ft | 325 kts | 262° |
| 2026-05-07 00:23 | 32.92950 | -112.88674 | 15656 ft | 324 kts | 262° |
| 2026-05-07 00:23 | 32.92624 | -112.91297 | 16168 ft | 319 kts | 262° |
| 2026-05-07 00:23 | 32.92294 | -112.93937 | 16761 ft | 326 kts | 262° |
| 2026-05-07 00:23 | 32.91955 | -112.96630 | 17369 ft | 331 kts | 262° |
| 2026-05-07 00:24 | 32.91611 | -112.99351 | 17980 ft | 334 kts | 262° |
| 2026-05-07 00:24 | 32.91262 | -113.02098 | 18550 ft | 338 kts | 262° |
| 2026-05-07 00:24 | 32.90912 | -113.04842 | 19082 ft | 343 kts | 262° |
| 2026-05-07 00:24 | 32.90551 | -113.07662 | 19632 ft | 347 kts | 262° |
| 2026-05-07 00:25 | 32.90185 | -113.10518 | 20187 ft | 351 kts | 262° |
| 2026-05-07 00:25 | 32.89815 | -113.13400 | 20752 ft | 354 kts | 263° |
| 2026-05-07 00:25 | 32.89440 | -113.16320 | 21336 ft | 359 kts | 263° |
| 2026-05-07 00:25 | 32.89060 | -113.19273 | 21922 ft | 364 kts | 263° |
| 2026-05-07 00:26 | 32.88674 | -113.22262 | 22519 ft | 368 kts | 263° |
| 2026-05-07 00:26 | 32.88281 | -113.25293 | 23135 ft | 373 kts | 263° |
| 2026-05-07 00:26 | 32.87884 | -113.28360 | 23721 ft | 377 kts | 263° |
| 2026-05-07 00:26 | 32.87488 | -113.31419 | 24241 ft | 381 kts | 263° |
| 2026-05-07 00:27 | 32.87083 | -113.34542 | 24783 ft | 383 kts | 263° |
| 2026-05-07 00:27 | 32.86676 | -113.37674 | 25324 ft | 384 kts | 263° |
| 2026-05-07 00:27 | 32.86266 | -113.40823 | 25882 ft | 387 kts | 263° |
| 2026-05-07 00:27 | 32.85852 | -113.43999 | 26453 ft | 391 kts | 263° |
| 2026-05-07 00:28 | 32.85432 | -113.47210 | 27037 ft | 395 kts | 263° |
| 2026-05-07 00:28 | 32.85009 | -113.50445 | 27626 ft | 398 kts | 263° |
| 2026-05-07 00:28 | 32.84580 | -113.53713 | 28237 ft | 401 kts | 264° |
| 2026-05-07 00:28 | 32.84152 | -113.56965 | 28849 ft | 405 kts | 264° |
| 2026-05-07 00:29 | 32.83714 | -113.60285 | 29451 ft | 410 kts | 264° |
| 2026-05-07 00:29 | 32.83267 | -113.63681 | 29758 ft | 421 kts | 264° |
| 2026-05-07 00:30 | 32.81904 | -113.73974 | 29925 ft | 415 kts | 264° |
| 2026-05-07 00:30 | 32.81453 | -113.77358 | 29925 ft | 415 kts | 264° |
| 2026-05-07 00:30 | 32.80543 | -113.84158 | 29929 ft | 417 kts | 264° |
| 2026-05-07 00:31 | 32.79637 | -113.90910 | 29923 ft | 416 kts | 264° |
| 2026-05-07 00:31 | 32.78724 | -113.97713 | 29926 ft | 417 kts | 264° |
| 2026-05-07 00:32 | 32.77930 | -114.04543 | 29932 ft | 416 kts | 270° |
| 2026-05-07 00:32 | 32.77825 | -114.11388 | 29937 ft | 414 kts | 275° |
| 2026-05-07 00:33 | 32.77966 | -114.18223 | 29942 ft | 414 kts | 276° |
| 2026-05-07 00:33 | 32.78196 | -114.25011 | 29940 ft | 413 kts | 277° |
| 2026-05-07 00:34 | 32.78461 | -114.31832 | 29941 ft | 414 kts | 277° |
| 2026-05-07 00:34 | 32.79223 | -114.38557 | 29956 ft | 409 kts | 289° |
| 2026-05-07 00:35 | 32.80684 | -114.45054 | 29950 ft | 405 kts | 292° |
| 2026-05-07 00:35 | 32.82308 | -114.51413 | 29950 ft | 405 kts | 293° |
| 2026-05-07 00:36 | 32.84017 | -114.57783 | 29955 ft | 404 kts | 294° |
| 2026-05-07 00:36 | 32.85753 | -114.64139 | 29957 ft | 404 kts | 294° |
| 2026-05-07 00:37 | 32.87175 | -114.70625 | 29970 ft | 412 kts | 281° |
| 2026-05-07 00:37 | 32.87480 | -114.77441 | 29966 ft | 417 kts | 276° |
| 2026-05-07 00:38 | 32.87506 | -114.84331 | 29960 ft | 417 kts | 274° |
| 2026-05-07 00:38 | 32.87438 | -114.91264 | 29966 ft | 421 kts | 274° |
| 2026-05-07 00:39 | 32.87318 | -114.98215 | 29975 ft | 420 kts | 273° |
| 2026-05-07 00:39 | 32.87173 | -115.05168 | 29976 ft | 421 kts | 273° |
| 2026-05-07 00:40 | 32.87015 | -115.12085 | 29974 ft | 421 kts | 273° |
| 2026-05-07 00:40 | 32.86848 | -115.19049 | 29968 ft | 422 kts | 273° |
| 2026-05-07 00:41 | 32.86679 | -115.26029 | 29970 ft | 422 kts | 273° |
| 2026-05-07 00:41 | 32.86380 | -115.33009 | 29960 ft | 424 kts | 269° |
| 2026-05-07 00:42 | 32.85657 | -115.39996 | 29825 ft | 426 kts | 266° |
| 2026-05-07 00:42 | 32.85216 | -115.43427 | 29506 ft | 425 kts | 265° |
| 2026-05-07 00:42 | 32.84724 | -115.46874 | 29007 ft | 422 kts | 264° |
| 2026-05-07 00:43 | 32.84197 | -115.50290 | 28402 ft | 418 kts | 263° |
| 2026-05-07 00:43 | 32.83656 | -115.53663 | 27788 ft | 413 kts | 263° |
| 2026-05-07 00:43 | 32.83110 | -115.56997 | 27186 ft | 408 kts | 263° |
| 2026-05-07 00:43 | 32.82565 | -115.60293 | 26601 ft | 404 kts | 263° |
| 2026-05-07 00:44 | 32.82025 | -115.63549 | 26044 ft | 399 kts | 263° |
| 2026-05-07 00:44 | 32.81491 | -115.66766 | 25492 ft | 395 kts | 263° |
| 2026-05-07 00:44 | 32.80963 | -115.69949 | 24938 ft | 390 kts | 263° |
| 2026-05-07 00:44 | 32.80449 | -115.73056 | 24408 ft | 386 kts | 263° |
| 2026-05-07 00:45 | 32.79934 | -115.76171 | 23884 ft | 382 kts | 263° |
| 2026-05-07 00:45 | 32.79426 | -115.79251 | 23332 ft | 378 kts | 263° |
| 2026-05-07 00:45 | 32.78983 | -115.82308 | 22736 ft | 372 kts | 265° |
| 2026-05-07 00:45 | 32.78638 | -115.85334 | 22158 ft | 367 kts | 267° |
| 2026-05-07 00:46 | 32.78345 | -115.88327 | 21593 ft | 363 kts | 268° |
| 2026-05-07 00:46 | 32.78081 | -115.91290 | 21034 ft | 359 kts | 268° |
| 2026-05-07 00:46 | 32.77838 | -115.94225 | 20526 ft | 358 kts | 268° |
| 2026-05-07 00:46 | 32.77609 | -115.97119 | 20247 ft | 354 kts | 268° |
| 2026-05-07 00:47 | 32.77383 | -116.00006 | 20121 ft | 348 kts | 269° |
| 2026-05-07 00:47 | 32.77162 | -116.02876 | 19910 ft | 349 kts | 269° |
| 2026-05-07 00:47 | 32.76944 | -116.05741 | 19498 ft | 347 kts | 269° |
| 2026-05-07 00:47 | 32.76730 | -116.08590 | 19011 ft | 345 kts | 269° |
| 2026-05-07 00:48 | 32.76517 | -116.11413 | 18502 ft | 342 kts | 268° |
| 2026-05-07 00:48 | 32.76307 | -116.14213 | 17950 ft | 338 kts | 268° |
| 2026-05-07 00:48 | 32.76095 | -116.16984 | 17355 ft | 336 kts | 268° |
| 2026-05-07 00:48 | 32.75885 | -116.19737 | 16795 ft | 333 kts | 268° |
| 2026-05-07 00:49 | 32.75676 | -116.22460 | 16305 ft | 329 kts | 268° |
| 2026-05-07 00:49 | 32.75466 | -116.25161 | 15765 ft | 327 kts | 268° |
| 2026-05-07 00:49 | 32.75261 | -116.27808 | 15245 ft | 325 kts | 268° |
| 2026-05-07 00:49 | 32.75054 | -116.30476 | 14705 ft | 323 kts | 268° |
| 2026-05-07 00:50 | 32.74849 | -116.33121 | 14195 ft | 321 kts | 268° |
| 2026-05-07 00:50 | 32.74646 | -116.35749 | 13668 ft | 319 kts | 268° |
| 2026-05-07 00:50 | 32.74443 | -116.38355 | 13132 ft | 315 kts | 268° |
| 2026-05-07 00:50 | 32.74239 | -116.40933 | 12607 ft | 312 kts | 268° |
| 2026-05-07 00:51 | 32.74041 | -116.43479 | 12115 ft | 308 kts | 268° |
| 2026-05-07 00:51 | 32.73844 | -116.46002 | 11729 ft | 305 kts | 269° |
| 2026-05-07 00:51 | 32.73636 | -116.48492 | 11520 ft | 302 kts | 268° |
| 2026-05-07 00:51 | 32.73425 | -116.50932 | 11442 ft | 301 kts | 268° |
| 2026-05-07 00:52 | 32.73203 | -116.53373 | 11390 ft | 289 kts | 267° |
| 2026-05-07 00:52 | 32.72983 | -116.55688 | 11252 ft | 275 kts | 267° |
| 2026-05-07 00:52 | 32.72766 | -116.57891 | 11122 ft | 260 kts | 268° |
| 2026-05-07 00:52 | 32.72559 | -116.59950 | 10840 ft | 247 kts | 268° |
| 2026-05-07 00:53 | 32.72365 | -116.61985 | 10326 ft | 249 kts | 268° |
| 2026-05-07 00:53 | 32.72179 | -116.64024 | 9853 ft | 248 kts | 268° |
| 2026-05-07 00:53 | 32.72005 | -116.66036 | 9452 ft | 244 kts | 268° |
| 2026-05-07 00:53 | 32.71843 | -116.68030 | 9250 ft | 245 kts | 268° |
| 2026-05-07 00:54 | 32.71683 | -116.70002 | 9030 ft | 244 kts | 268° |
| 2026-05-07 00:54 | 32.71529 | -116.71914 | 8218 ft | 236 kts | 268° |
| 2026-05-07 00:54 | 32.71377 | -116.73905 | 7748 ft | 239 kts | 268° |
| 2026-05-07 00:54 | 32.71226 | -116.75846 | 7403 ft | 233 kts | 267° |
| 2026-05-07 00:55 | 32.71075 | -116.77747 | 7009 ft | 230 kts | 268° |
| 2026-05-07 00:55 | 32.70904 | -116.79633 | 6643 ft | 229 kts | 261° |
| 2026-05-07 00:55 | 32.70527 | -116.81452 | 6421 ft | 226 kts | 256° |
| 2026-05-07 00:55 | 32.70064 | -116.83257 | 5977 ft | 230 kts | 255° |
| 2026-05-07 00:56 | 32.69595 | -116.85049 | 5632 ft | 224 kts | 255° |
| 2026-05-07 00:56 | 32.69130 | -116.86789 | 5442 ft | 220 kts | 254° |
| 2026-05-07 00:56 | 32.68665 | -116.88488 | 5355 ft | 220 kts | 254° |
| 2026-05-07 00:56 | 32.68177 | -116.90211 | 5269 ft | 222 kts | 253° |
| 2026-05-07 00:57 | 32.67710 | -116.91951 | 4780 ft | 219 kts | 259° |
| 2026-05-07 00:57 | 32.67522 | -116.93746 | 4413 ft | 216 kts | 271° |
| 2026-05-07 00:57 | 32.67636 | -116.95488 | 4223 ft | 210 kts | 282° |
| 2026-05-07 00:57 | 32.67964 | -116.97207 | 3819 ft | 214 kts | 287° |
| 2026-05-07 00:58 | 32.68367 | -116.98841 | 3441 ft | 199 kts | 288° |
| 2026-05-07 00:58 | 32.68770 | -117.00368 | 3260 ft | 191 kts | 289° |
| 2026-05-07 00:58 | 32.69175 | -117.01850 | 3159 ft | 178 kts | 289° |
| 2026-05-07 00:58 | 32.69488 | -117.03067 | 2947 ft | 143 kts | 288° |
| 2026-05-07 00:59 | 32.70023 | -117.05253 | 2593 ft | 136 kts | 289° |
| 2026-05-07 00:59 | 32.70282 | -117.06333 | 2550 ft | 137 kts | 288° |
| 2026-05-07 00:59 | 32.70547 | -117.07409 | 2531 ft | 136 kts | 288° |
| 2026-05-07 01:00 | 32.70816 | -117.08496 | 2530 ft | 139 kts | 288° |
| 2026-05-07 01:00 | 32.71092 | -117.09593 | 2537 ft | 139 kts | 289° |
| 2026-05-07 01:00 | 32.71328 | -117.10572 | 2271 ft | 120 kts | 289° |
| 2026-05-07 01:00 | 32.71589 | -117.11720 | 1908 ft | 162 kts | 287° |
| 2026-05-07 01:01 | 32.71860 | -117.13029 | 1604 ft | 151 kts | 288° |
| 2026-05-07 01:01 | 32.72197 | -117.14191 | 1136 ft | 150 kts | 291° |
| 2026-05-07 01:01 | 32.72469 | -117.15345 | 712 ft | 151 kts | 289° |
| 2026-05-07 01:01 | 32.72769 | -117.16517 | 400 ft | 150 kts | 289° |
| 2026-05-07 01:02 | 32.73032 | -117.17618 | 100 ft | 129 kts | 288° |
| 2026-05-07 01:02 | 32.73254 | -117.18517 | 28 ft | 92 kts | 285° |
| 2026-05-07 01:02 | 32.73379 | -117.19048 | 28 ft | 41 kts | 280° |
| 2026-05-07 01:02 | 32.73299 | -117.19201 | 25 ft | 13 kts | 217° |
| 2026-05-07 01:03 | 32.73296 | -117.19216 | 29 ft | 1 kts | 298° |
| 2026-05-07 01:03 | 32.73313 | -117.19245 | 27 ft | 6 kts | 302° |
| 2026-05-07 01:03 | 32.73326 | -117.19275 | 24 ft | 1 kts | 295° |
| 2026-05-07 01:03 | 32.73335 | -117.19312 | 24 ft | 9 kts | 286° |
| 2026-05-07 01:04 | 32.73350 | -117.19375 | 29 ft | 7 kts | 286° |
| 2026-05-07 01:04 | 32.73362 | -117.19423 | 28 ft | 4 kts | 286° |
| 2026-05-07 01:04 | 32.73372 | -117.19467 | 27 ft | 8 kts | 278° |
| 2026-05-07 01:04 | 32.73358 | -117.19522 | 27 ft | 3 kts | 224° |
| 2026-05-07 01:05 | 32.73339 | -117.19543 | 29 ft | 5 kts | 220° |
| 2026-05-07 01:05 | 32.73322 | -117.19560 | 26 ft | 2 kts | 226° |
| 2026-05-07 01:05 | 32.73316 | -117.19566 | 25 ft | 2 kts | 226° |
| 2026-05-07 01:05 | 32.73312 | -117.19572 | 27 ft | 0 kts | 226° |